sensor_id;sensor_type;location;lat;lon;timestamp;temperature;humidity
17986;DHT22;9118;48.122;11.546;2023-05-07T00:01:39;15.30;99.90
17986;DHT22;9118;48.122;11.546;2023-05-07T00:04:06;16.30;99.90
17986;DHT22;9118;48.122;11.546;2023-05-07T00:06:34;15.30;99.90
17986;DHT22;9118;48.122;11.546;2023-05-07T00:09:01;15.50;99.90
17986;DHT22;9118;48.122;11.546;2023-05-07T00:11:30;15.30;99.90
17986;DHT22;9118;48.122;11.546;2023-05-07T00:13:57;15.30;99.90
17986;DHT22;9118;48.122;11.546;2023-05-07T00:16:25;15.30;99.90
17986;DHT22;9118;48.122;11.546;2023-05-07T00:18:52;15.30;99.90
17986;DHT22;9118;48.122;11.546;2023-05-07T00:21:20;15.30;99.90
17986;DHT22;9118;48.122;11.546;2023-05-07T00:23:47;15.10;99.90
17986;DHT22;9118;48.122;11.546;2023-05-07T00:26:14;15.10;99.90
17986;DHT22;9118;48.122;11.546;2023-05-07T00:28:43;15.10;99.90
17986;DHT22;9118;48.122;11.546;2023-05-07T00:31:10;15.50;99.90
17986;DHT22;9118;48.122;11.546;2023-05-07T00:33:38;15.10;99.90
17986;DHT22;9118;48.122;11.546;2023-05-07T00:36:05;15.20;99.90
17986;DHT22;9118;48.122;11.546;2023-05-07T00:38:32;15.20;99.90
17986;DHT22;9118;48.122;11.546;2023-05-07T00:40:59;14.90;99.90
17986;DHT22;9118;48.122;11.546;2023-05-07T00:43:27;15.20;99.90
17986;DHT22;9118;48.122;11.546;2023-05-07T00:45:56;15.20;99.90
17986;DHT22;9118;48.122;11.546;2023-05-07T00:48:25;15.10;99.90
17986;DHT22;9118;48.122;11.546;2023-05-07T00:50:53;15.10;99.90
17986;DHT22;9118;48.122;11.546;2023-05-07T00:53:20;14.90;99.90
17986;DHT22;9118;48.122;11.546;2023-05-07T00:55:48;15.00;99.90
17986;DHT22;9118;48.122;11.546;2023-05-07T00:58:16;15.00;99.90
17986;DHT22;9118;48.122;11.546;2023-05-07T01:00:43;15.10;99.90
17986;DHT22;9118;48.122;11.546;2023-05-07T01:03:11;15.10;99.90
17986;DHT22;9118;48.122;11.546;2023-05-07T01:05:39;15.00;99.90
17986;DHT22;9118;48.122;11.546;2023-05-07T01:08:06;15.00;99.90
17986;DHT22;9118;48.122;11.546;2023-05-07T01:10:33;15.30;99.90
17986;DHT22;9118;48.122;11.546;2023-05-07T01:13:01;14.90;99.90
17986;DHT22;9118;48.122;11.546;2023-05-07T01:15:28;14.80;99.90
17986;DHT22;9118;48.122;11.546;2023-05-07T01:17:56;14.80;99.90
17986;DHT22;9118;48.122;11.546;2023-05-07T01:20:24;14.80;99.90
17986;DHT22;9118;48.122;11.546;2023-05-07T01:22:53;14.90;99.90
17986;DHT22;9118;48.122;11.546;2023-05-07T01:25:20;14.90;99.90
17986;DHT22;9118;48.122;11.546;2023-05-07T01:27:48;14.90;99.90
17986;DHT22;9118;48.122;11.546;2023-05-07T01:30:16;15.20;99.90
17986;DHT22;9118;48.122;11.546;2023-05-07T01:32:49;15.00;99.90
17986;DHT22;9118;48.122;11.546;2023-05-07T01:35:20;15.00;99.90
17986;DHT22;9118;48.122;11.546;2023-05-07T01:37:49;15.00;99.90
17986;DHT22;9118;48.122;11.546;2023-05-07T01:40:18;14.50;99.90
17986;DHT22;9118;48.122;11.546;2023-05-07T01:42:46;14.90;99.90
17986;DHT22;9118;48.122;11.546;2023-05-07T01:45:14;14.90;99.90
17986;DHT22;9118;48.122;11.546;2023-05-07T01:47:41;14.90;99.90
17986;DHT22;9118;48.122;11.546;2023-05-07T01:50:09;14.90;99.90
17986;DHT22;9118;48.122;11.546;2023-05-07T01:52:37;14.80;99.90
17986;DHT22;9118;48.122;11.546;2023-05-07T01:55:06;14.80;99.90
17986;DHT22;9118;48.122;11.546;2023-05-07T01:57:34;14.80;99.90
17986;DHT22;9118;48.122;11.546;2023-05-07T02:00:03;14.80;99.90
17986;DHT22;9118;48.122;11.546;2023-05-07T02:02:31;14.80;99.90
17986;DHT22;9118;48.122;11.546;2023-05-07T02:04:59;14.70;99.90
17986;DHT22;9118;48.122;11.546;2023-05-07T02:07:26;14.50;99.90
17986;DHT22;9118;48.122;11.546;2023-05-07T02:09:53;14.20;99.90
17986;DHT22;9118;48.122;11.546;2023-05-07T02:12:21;14.10;99.90
17986;DHT22;9118;48.122;11.546;2023-05-07T02:14:49;13.80;99.90
17986;DHT22;9118;48.122;11.546;2023-05-07T02:17:16;13.70;99.90
17986;DHT22;9118;48.122;11.546;2023-05-07T02:19:43;13.80;99.90
17986;DHT22;9118;48.122;11.546;2023-05-07T02:22:10;13.90;99.90
17986;DHT22;9118;48.122;11.546;2023-05-07T02:24:37;14.60;99.90
17986;DHT22;9118;48.122;11.546;2023-05-07T02:27:05;13.80;99.90
17986;DHT22;9118;48.122;11.546;2023-05-07T02:29:32;14.50;99.90
17986;DHT22;9118;48.122;11.546;2023-05-07T02:32:00;14.00;99.90
17986;DHT22;9118;48.122;11.546;2023-05-07T02:34:27;14.10;99.90
17986;DHT22;9118;48.122;11.546;2023-05-07T02:36:55;14.10;99.90
17986;DHT22;9118;48.122;11.546;2023-05-07T02:39:22;14.00;99.90
17986;DHT22;9118;48.122;11.546;2023-05-07T02:41:49;14.20;99.90
17986;DHT22;9118;48.122;11.546;2023-05-07T02:44:18;14.20;99.90
17986;DHT22;9118;48.122;11.546;2023-05-07T02:46:45;14.30;99.90
17986;DHT22;9118;48.122;11.546;2023-05-07T02:49:14;14.40;99.90
17986;DHT22;9118;48.122;11.546;2023-05-07T02:51:41;14.40;99.90
17986;DHT22;9118;48.122;11.546;2023-05-07T02:54:08;14.30;99.90
17986;DHT22;9118;48.122;11.546;2023-05-07T02:56:35;14.10;99.90
17986;DHT22;9118;48.122;11.546;2023-05-07T02:59:04;14.00;99.90
17986;DHT22;9118;48.122;11.546;2023-05-07T03:01:31;13.90;99.90
17986;DHT22;9118;48.122;11.546;2023-05-07T03:03:58;13.70;99.90
17986;DHT22;9118;48.122;11.546;2023-05-07T03:06:27;13.70;99.90
17986;DHT22;9118;48.122;11.546;2023-05-07T03:08:54;13.70;99.90
17986;DHT22;9118;48.122;11.546;2023-05-07T03:11:21;13.70;99.90
17986;DHT22;9118;48.122;11.546;2023-05-07T03:13:48;13.70;99.90
17986;DHT22;9118;48.122;11.546;2023-05-07T03:16:15;13.80;99.90
17986;DHT22;9118;48.122;11.546;2023-05-07T03:18:42;13.90;99.90
17986;DHT22;9118;48.122;11.546;2023-05-07T03:21:10;13.80;99.90
17986;DHT22;9118;48.122;11.546;2023-05-07T03:23:39;13.80;99.90
17986;DHT22;9118;48.122;11.546;2023-05-07T03:26:06;13.80;99.90
17986;DHT22;9118;48.122;11.546;2023-05-07T03:28:33;13.80;99.90
17986;DHT22;9118;48.122;11.546;2023-05-07T03:31:00;13.90;99.90
17986;DHT22;9118;48.122;11.546;2023-05-07T03:33:27;13.90;99.90
17986;DHT22;9118;48.122;11.546;2023-05-07T03:35:55;13.90;99.90
17986;DHT22;9118;48.122;11.546;2023-05-07T03:38:22;13.90;99.90
17986;DHT22;9118;48.122;11.546;2023-05-07T03:40:50;14.50;99.90
17986;DHT22;9118;48.122;11.546;2023-05-07T03:43:17;14.00;99.90
17986;DHT22;9118;48.122;11.546;2023-05-07T03:45:44;14.00;99.90
17986;DHT22;9118;48.122;11.546;2023-05-07T03:48:11;14.50;99.90
17986;DHT22;9118;48.122;11.546;2023-05-07T03:50:38;14.10;99.90
17986;DHT22;9118;48.122;11.546;2023-05-07T03:53:06;14.00;99.90
17986;DHT22;9118;48.122;11.546;2023-05-07T03:55:32;13.90;99.90
17986;DHT22;9118;48.122;11.546;2023-05-07T03:58:01;13.90;99.90
17986;DHT22;9118;48.122;11.546;2023-05-07T04:00:28;14.90;99.90
17986;DHT22;9118;48.122;11.546;2023-05-07T04:02:59;13.90;99.90
17986;DHT22;9118;48.122;11.546;2023-05-07T04:05:26;13.90;99.90
17986;DHT22;9118;48.122;11.546;2023-05-07T04:07:53;14.30;99.90
17986;DHT22;9118;48.122;11.546;2023-05-07T04:10:20;15.10;99.90
17986;DHT22;9118;48.122;11.546;2023-05-07T04:12:48;13.70;99.90
17986;DHT22;9118;48.122;11.546;2023-05-07T04:15:17;13.70;99.90
17986;DHT22;9118;48.122;11.546;2023-05-07T04:17:44;13.60;99.90
17986;DHT22;9118;48.122;11.546;2023-05-07T04:20:16;13.70;99.90
17986;DHT22;9118;48.122;11.546;2023-05-07T04:22:45;13.50;99.90
17986;DHT22;9118;48.122;11.546;2023-05-07T04:25:12;13.60;99.90
17986;DHT22;9118;48.122;11.546;2023-05-07T04:27:39;13.60;99.90
17986;DHT22;9118;48.122;11.546;2023-05-07T04:30:07;13.60;99.90
17986;DHT22;9118;48.122;11.546;2023-05-07T04:32:36;17.50;99.90
17986;DHT22;9118;48.122;11.546;2023-05-07T04:35:03;13.60;99.90
17986;DHT22;9118;48.122;11.546;2023-05-07T04:37:32;13.80;99.90
17986;DHT22;9118;48.122;11.546;2023-05-07T04:39:59;13.70;99.90
17986;DHT22;9118;48.122;11.546;2023-05-07T04:42:27;13.70;99.90
17986;DHT22;9118;48.122;11.546;2023-05-07T04:44:54;13.90;99.90
17986;DHT22;9118;48.122;11.546;2023-05-07T04:47:21;13.90;99.90
17986;DHT22;9118;48.122;11.546;2023-05-07T04:49:50;13.90;99.90
17986;DHT22;9118;48.122;11.546;2023-05-07T04:52:17;13.90;99.90
17986;DHT22;9118;48.122;11.546;2023-05-07T04:54:44;14.00;99.90
17986;DHT22;9118;48.122;11.546;2023-05-07T04:57:11;14.00;99.90
17986;DHT22;9118;48.122;11.546;2023-05-07T04:59:38;14.00;99.90
17986;DHT22;9118;48.122;11.546;2023-05-07T05:02:06;14.10;99.90
17986;DHT22;9118;48.122;11.546;2023-05-07T05:04:33;14.00;99.90
17986;DHT22;9118;48.122;11.546;2023-05-07T05:07:02;13.90;99.90
17986;DHT22;9118;48.122;11.546;2023-05-07T05:09:30;13.90;99.90
17986;DHT22;9118;48.122;11.546;2023-05-07T05:11:59;13.90;99.90
17986;DHT22;9118;48.122;11.546;2023-05-07T05:14:26;13.90;99.90
17986;DHT22;9118;48.122;11.546;2023-05-07T05:16:53;13.90;99.90
17986;DHT22;9118;48.122;11.546;2023-05-07T05:19:21;14.00;99.90
17986;DHT22;9118;48.122;11.546;2023-05-07T05:21:48;14.00;99.90
17986;DHT22;9118;48.122;11.546;2023-05-07T05:24:17;14.10;99.90
17986;DHT22;9118;48.122;11.546;2023-05-07T05:26:45;14.60;99.90
17986;DHT22;9118;48.122;11.546;2023-05-07T05:29:12;14.10;99.90
17986;DHT22;9118;48.122;11.546;2023-05-07T05:31:40;14.10;99.90
17986;DHT22;9118;48.122;11.546;2023-05-07T05:34:07;14.20;99.90
17986;DHT22;9118;48.122;11.546;2023-05-07T05:36:36;14.20;99.90
17986;DHT22;9118;48.122;11.546;2023-05-07T05:39:05;14.20;99.90
17986;DHT22;9118;48.122;11.546;2023-05-07T05:41:35;14.40;99.90
17986;DHT22;9118;48.122;11.546;2023-05-07T05:44:03;14.30;99.90
17986;DHT22;9118;48.122;11.546;2023-05-07T05:46:30;14.40;99.90
17986;DHT22;9118;48.122;11.546;2023-05-07T05:48:57;14.40;99.90
17986;DHT22;9118;48.122;11.546;2023-05-07T05:51:25;14.50;99.90
17986;DHT22;9118;48.122;11.546;2023-05-07T05:53:52;14.50;99.90
17986;DHT22;9118;48.122;11.546;2023-05-07T05:56:19;14.50;99.90
17986;DHT22;9118;48.122;11.546;2023-05-07T05:58:48;14.50;99.90
17986;DHT22;9118;48.122;11.546;2023-05-07T06:01:15;14.50;99.90
17986;DHT22;9118;48.122;11.546;2023-05-07T06:03:48;14.60;99.90
17986;DHT22;9118;48.122;11.546;2023-05-07T06:06:15;14.70;99.90
17986;DHT22;9118;48.122;11.546;2023-05-07T06:08:42;14.70;99.90
17986;DHT22;9118;48.122;11.546;2023-05-07T06:11:10;14.80;99.90
17986;DHT22;9118;48.122;11.546;2023-05-07T06:13:37;14.90;99.90
17986;DHT22;9118;48.122;11.546;2023-05-07T06:16:07;15.90;99.90
17986;DHT22;9118;48.122;11.546;2023-05-07T06:18:35;15.00;99.90
17986;DHT22;9118;48.122;11.546;2023-05-07T06:21:03;15.00;99.90
17986;DHT22;9118;48.122;11.546;2023-05-07T06:23:30;15.10;99.90
17986;DHT22;9118;48.122;11.546;2023-05-07T06:25:57;15.20;99.90
17986;DHT22;9118;48.122;11.546;2023-05-07T06:28:24;15.30;99.90
17986;DHT22;9118;48.122;11.546;2023-05-07T06:30:51;15.40;99.90
17986;DHT22;9118;48.122;11.546;2023-05-07T06:33:19;15.50;99.90
17986;DHT22;9118;48.122;11.546;2023-05-07T06:35:46;15.50;99.90
17986;DHT22;9118;48.122;11.546;2023-05-07T06:38:13;15.60;99.90
17986;DHT22;9118;48.122;11.546;2023-05-07T06:40:40;15.70;99.90
17986;DHT22;9118;48.122;11.546;2023-05-07T06:43:09;16.00;99.90
17986;DHT22;9118;48.122;11.546;2023-05-07T06:45:36;17.10;99.90
17986;DHT22;9118;48.122;11.546;2023-05-07T06:48:04;15.90;99.90
17986;DHT22;9118;48.122;11.546;2023-05-07T06:50:32;16.30;99.90
17986;DHT22;9118;48.122;11.546;2023-05-07T06:52:59;16.10;99.90
17986;DHT22;9118;48.122;11.546;2023-05-07T06:55:26;16.40;99.90
17986;DHT22;9118;48.122;11.546;2023-05-07T06:57:53;16.20;99.90
17986;DHT22;9118;48.122;11.546;2023-05-07T07:00:20;16.30;99.90
17986;DHT22;9118;48.122;11.546;2023-05-07T07:02:49;16.00;99.90
17986;DHT22;9118;48.122;11.546;2023-05-07T07:05:16;16.40;99.90
17986;DHT22;9118;48.122;11.546;2023-05-07T07:07:44;16.50;99.90
17986;DHT22;9118;48.122;11.546;2023-05-07T07:10:18;16.60;99.90
17986;DHT22;9118;48.122;11.546;2023-05-07T07:12:45;16.90;99.90
17986;DHT22;9118;48.122;11.546;2023-05-07T07:15:13;16.80;99.90
17986;DHT22;9118;48.122;11.546;2023-05-07T07:17:40;16.90;99.90
17986;DHT22;9118;48.122;11.546;2023-05-07T07:20:08;16.90;99.90
17986;DHT22;9118;48.122;11.546;2023-05-07T07:22:35;17.00;99.90
17986;DHT22;9118;48.122;11.546;2023-05-07T07:25:04;17.10;99.90
17986;DHT22;9118;48.122;11.546;2023-05-07T07:27:31;17.10;99.90
17986;DHT22;9118;48.122;11.546;2023-05-07T07:29:58;17.30;99.90
17986;DHT22;9118;48.122;11.546;2023-05-07T07:32:25;17.30;99.90
17986;DHT22;9118;48.122;11.546;2023-05-07T07:34:53;17.30;99.90
17986;DHT22;9118;48.122;11.546;2023-05-07T07:37:20;17.80;99.90
17986;DHT22;9118;48.122;11.546;2023-05-07T07:39:48;17.60;99.90
17986;DHT22;9118;48.122;11.546;2023-05-07T07:42:17;17.60;99.90
17986;DHT22;9118;48.122;11.546;2023-05-07T07:44:44;17.70;99.90
17986;DHT22;9118;48.122;11.546;2023-05-07T07:47:11;17.70;99.90
17986;DHT22;9118;48.122;11.546;2023-05-07T07:49:39;17.80;99.90
17986;DHT22;9118;48.122;11.546;2023-05-07T07:52:06;18.20;99.90
17986;DHT22;9118;48.122;11.546;2023-05-07T07:54:34;18.30;99.90
17986;DHT22;9118;48.122;11.546;2023-05-07T07:57:01;18.10;99.90
17986;DHT22;9118;48.122;11.546;2023-05-07T07:59:31;18.10;99.90
17986;DHT22;9118;48.122;11.546;2023-05-07T08:01:58;18.40;99.90
17986;DHT22;9118;48.122;11.546;2023-05-07T08:04:25;18.30;99.90
17986;DHT22;9118;48.122;11.546;2023-05-07T08:06:52;18.30;99.90
17986;DHT22;9118;48.122;11.546;2023-05-07T08:09:23;18.40;99.90
17986;DHT22;9118;48.122;11.546;2023-05-07T08:11:50;18.50;99.90
17986;DHT22;9118;48.122;11.546;2023-05-07T08:14:17;18.50;99.90
17986;DHT22;9118;48.122;11.546;2023-05-07T08:16:46;18.70;99.90
17986;DHT22;9118;48.122;11.546;2023-05-07T08:19:13;17.60;99.90
17986;DHT22;9118;48.122;11.546;2023-05-07T08:21:41;18.80;99.90
17986;DHT22;9118;48.122;11.546;2023-05-07T08:24:09;18.80;99.90
17986;DHT22;9118;48.122;11.546;2023-05-07T08:26:37;19.40;99.90
17986;DHT22;9118;48.122;11.546;2023-05-07T08:29:05;18.90;99.90
17986;DHT22;9118;48.122;11.546;2023-05-07T08:31:32;19.00;99.90
17986;DHT22;9118;48.122;11.546;2023-05-07T08:34:00;19.10;99.90
17986;DHT22;9118;48.122;11.546;2023-05-07T08:36:27;19.10;99.90
17986;DHT22;9118;48.122;11.546;2023-05-07T08:38:55;19.30;99.90
17986;DHT22;9118;48.122;11.546;2023-05-07T08:41:22;19.50;99.90
17986;DHT22;9118;48.122;11.546;2023-05-07T08:43:50;19.60;99.90
17986;DHT22;9118;48.122;11.546;2023-05-07T08:46:22;19.80;99.90
17986;DHT22;9118;48.122;11.546;2023-05-07T08:48:50;19.40;99.90
17986;DHT22;9118;48.122;11.546;2023-05-07T08:51:20;20.40;99.90
17986;DHT22;9118;48.122;11.546;2023-05-07T08:53:49;19.60;99.90
17986;DHT22;9118;48.122;11.546;2023-05-07T08:56:17;21.20;99.90
17986;DHT22;9118;48.122;11.546;2023-05-07T08:58:46;19.60;99.90
17986;DHT22;9118;48.122;11.546;2023-05-07T09:01:15;19.80;99.90
17986;DHT22;9118;48.122;11.546;2023-05-07T09:03:44;19.90;99.90
17986;DHT22;9118;48.122;11.546;2023-05-07T09:06:12;20.00;99.90
17986;DHT22;9118;48.122;11.546;2023-05-07T09:08:40;20.00;99.90
17986;DHT22;9118;48.122;11.546;2023-05-07T09:11:08;20.10;99.90
17986;DHT22;9118;48.122;11.546;2023-05-07T09:13:36;20.10;99.90
17986;DHT22;9118;48.122;11.546;2023-05-07T09:16:11;20.20;99.90
17986;DHT22;9118;48.122;11.546;2023-05-07T09:18:41;20.30;99.90
17986;DHT22;9118;48.122;11.546;2023-05-07T09:21:11;20.40;99.90
17986;DHT22;9118;48.122;11.546;2023-05-07T09:23:39;19.80;99.90
17986;DHT22;9118;48.122;11.546;2023-05-07T09:26:06;20.40;99.90
17986;DHT22;9118;48.122;11.546;2023-05-07T09:28:39;20.50;99.90
17986;DHT22;9118;48.122;11.546;2023-05-07T09:31:08;20.50;99.90
17986;DHT22;9118;48.122;11.546;2023-05-07T09:33:35;21.90;99.90
17986;DHT22;9118;48.122;11.546;2023-05-07T09:36:03;20.50;99.90
17986;DHT22;9118;48.122;11.546;2023-05-07T09:38:31;20.60;99.90
17986;DHT22;9118;48.122;11.546;2023-05-07T09:41:04;20.70;99.90
17986;DHT22;9118;48.122;11.546;2023-05-07T09:43:35;20.80;99.90
17986;DHT22;9118;48.122;11.546;2023-05-07T09:46:06;21.00;99.90
17986;DHT22;9118;48.122;11.546;2023-05-07T09:48:37;21.10;99.90
17986;DHT22;9118;48.122;11.546;2023-05-07T09:51:13;21.20;99.90
17986;DHT22;9118;48.122;11.546;2023-05-07T09:53:42;21.20;99.90
17986;DHT22;9118;48.122;11.546;2023-05-07T09:56:13;21.30;99.90
17986;DHT22;9118;48.122;11.546;2023-05-07T09:58:43;21.30;99.90
17986;DHT22;9118;48.122;11.546;2023-05-07T10:01:11;21.30;99.90
17986;DHT22;9118;48.122;11.546;2023-05-07T10:03:41;21.30;99.90
17986;DHT22;9118;48.122;11.546;2023-05-07T10:06:10;21.20;99.90
17986;DHT22;9118;48.122;11.546;2023-05-07T10:08:39;21.30;99.90
17986;DHT22;9118;48.122;11.546;2023-05-07T10:11:09;21.40;99.90
17986;DHT22;9118;48.122;11.546;2023-05-07T10:13:38;21.40;99.90
17986;DHT22;9118;48.122;11.546;2023-05-07T10:16:06;22.10;99.90
17986;DHT22;9118;48.122;11.546;2023-05-07T10:18:33;21.50;99.90
17986;DHT22;9118;48.122;11.546;2023-05-07T10:21:04;21.70;99.90
17986;DHT22;9118;48.122;11.546;2023-05-07T10:23:32;21.70;99.90
17986;DHT22;9118;48.122;11.546;2023-05-07T10:26:02;21.70;99.90
17986;DHT22;9118;48.122;11.546;2023-05-07T10:28:33;21.80;99.90
17986;DHT22;9118;48.122;11.546;2023-05-07T10:31:47;21.80;99.90
17986;DHT22;9118;48.122;11.546;2023-05-07T10:34:18;21.80;99.90
17986;DHT22;9118;48.122;11.546;2023-05-07T10:36:48;21.80;99.90
17986;DHT22;9118;48.122;11.546;2023-05-07T10:39:16;21.90;99.90
17986;DHT22;9118;48.122;11.546;2023-05-07T10:41:43;21.90;99.90
17986;DHT22;9118;48.122;11.546;2023-05-07T10:44:10;21.90;99.90
17986;DHT22;9118;48.122;11.546;2023-05-07T10:46:39;21.90;99.90
17986;DHT22;9118;48.122;11.546;2023-05-07T10:49:09;22.70;99.90
17986;DHT22;9118;48.122;11.546;2023-05-07T10:51:38;22.10;99.90
17986;DHT22;9118;48.122;11.546;2023-05-07T10:54:23;22.20;99.90
17986;DHT22;9118;48.122;11.546;2023-05-07T10:56:50;22.40;99.90
17986;DHT22;9118;48.122;11.546;2023-05-07T10:59:34;22.50;99.90
17986;DHT22;9118;48.122;11.546;2023-05-07T11:02:09;22.50;99.90
17986;DHT22;9118;48.122;11.546;2023-05-07T11:04:39;22.60;99.90
17986;DHT22;9118;48.122;11.546;2023-05-07T11:07:29;22.60;99.90
17986;DHT22;9118;48.122;11.546;2023-05-07T11:09:57;22.60;99.90
17986;DHT22;9118;48.122;11.546;2023-05-07T11:12:53;22.60;99.90
17986;DHT22;9118;48.122;11.546;2023-05-07T11:15:41;22.60;99.90
17986;DHT22;9118;48.122;11.546;2023-05-07T11:18:13;22.60;99.90
17986;DHT22;9118;48.122;11.546;2023-05-07T11:20:55;22.70;99.90
17986;DHT22;9118;48.122;11.546;2023-05-07T11:23:57;22.80;99.90
17986;DHT22;9118;48.122;11.546;2023-05-07T11:26:25;22.90;99.90
17986;DHT22;9118;48.122;11.546;2023-05-07T11:28:52;23.00;99.90
17986;DHT22;9118;48.122;11.546;2023-05-07T11:31:27;22.80;99.90
17986;DHT22;9118;48.122;11.546;2023-05-07T11:33:57;23.30;99.90
17986;DHT22;9118;48.122;11.546;2023-05-07T11:36:24;23.00;99.90
17986;DHT22;9118;48.122;11.546;2023-05-07T11:38:52;24.50;99.90
17986;DHT22;9118;48.122;11.546;2023-05-07T11:41:20;23.90;99.90
17986;DHT22;9118;48.122;11.546;2023-05-07T11:43:58;23.50;99.90
17986;DHT22;9118;48.122;11.546;2023-05-07T11:46:26;23.10;99.90
17986;DHT22;9118;48.122;11.546;2023-05-07T11:48:53;23.30;99.90
17986;DHT22;9118;48.122;11.546;2023-05-07T11:51:23;23.10;99.90
17986;DHT22;9118;48.122;11.546;2023-05-07T11:53:52;23.20;99.90
17986;DHT22;9118;48.122;11.546;2023-05-07T11:56:19;23.20;99.90
17986;DHT22;9118;48.122;11.546;2023-05-07T11:58:47;23.40;99.90
17986;DHT22;9118;48.122;11.546;2023-05-07T12:01:16;23.40;99.90
17986;DHT22;9118;48.122;11.546;2023-05-07T12:03:44;23.50;99.90
17986;DHT22;9118;48.122;11.546;2023-05-07T12:06:14;23.60;99.90
17986;DHT22;9118;48.122;11.546;2023-05-07T12:08:44;23.60;99.90
17986;DHT22;9118;48.122;11.546;2023-05-07T12:11:14;23.70;99.90
17986;DHT22;9118;48.122;11.546;2023-05-07T12:13:43;23.80;99.90
17986;DHT22;9118;48.122;11.546;2023-05-07T12:16:10;23.90;99.90
17986;DHT22;9118;48.122;11.546;2023-05-07T12:18:37;23.50;99.90
17986;DHT22;9118;48.122;11.546;2023-05-07T12:21:05;24.00;99.90
17986;DHT22;9118;48.122;11.546;2023-05-07T12:23:34;24.00;99.90
17986;DHT22;9118;48.122;11.546;2023-05-07T12:26:04;24.50;99.90
17986;DHT22;9118;48.122;11.546;2023-05-07T12:28:36;24.10;99.90
17986;DHT22;9118;48.122;11.546;2023-05-07T12:31:04;24.20;99.90
17986;DHT22;9118;48.122;11.546;2023-05-07T12:33:31;24.20;99.90
17986;DHT22;9118;48.122;11.546;2023-05-07T12:36:03;24.30;99.90
17986;DHT22;9118;48.122;11.546;2023-05-07T12:38:35;24.20;99.90
17986;DHT22;9118;48.122;11.546;2023-05-07T12:41:04;24.30;99.90
17986;DHT22;9118;48.122;11.546;2023-05-07T12:43:32;23.50;99.90
17986;DHT22;9118;48.122;11.546;2023-05-07T12:46:01;24.30;99.90
17986;DHT22;9118;48.122;11.546;2023-05-07T12:48:28;24.20;99.90
17986;DHT22;9118;48.122;11.546;2023-05-07T12:50:56;24.30;99.90
17986;DHT22;9118;48.122;11.546;2023-05-07T12:53:25;24.30;99.90
17986;DHT22;9118;48.122;11.546;2023-05-07T12:55:53;24.30;99.90
17986;DHT22;9118;48.122;11.546;2023-05-07T12:58:25;24.40;99.90
17986;DHT22;9118;48.122;11.546;2023-05-07T13:00:53;24.60;99.90
17986;DHT22;9118;48.122;11.546;2023-05-07T13:03:26;24.70;99.90
17986;DHT22;9118;48.122;11.546;2023-05-07T13:05:55;24.80;99.90
17986;DHT22;9118;48.122;11.546;2023-05-07T13:08:31;24.90;99.90
17986;DHT22;9118;48.122;11.546;2023-05-07T13:10:59;25.00;99.90
17986;DHT22;9118;48.122;11.546;2023-05-07T13:13:30;25.10;99.90
17986;DHT22;9118;48.122;11.546;2023-05-07T13:15:57;25.10;99.90
17986;DHT22;9118;48.122;11.546;2023-05-07T13:18:25;24.90;99.90
17986;DHT22;9118;48.122;11.546;2023-05-07T13:20:52;25.20;99.90
17986;DHT22;9118;48.122;11.546;2023-05-07T13:23:20;25.20;99.90
17986;DHT22;9118;48.122;11.546;2023-05-07T13:25:47;25.40;99.90
17986;DHT22;9118;48.122;11.546;2023-05-07T13:28:15;25.40;99.90
17986;DHT22;9118;48.122;11.546;2023-05-07T13:30:44;25.50;99.90
17986;DHT22;9118;48.122;11.546;2023-05-07T13:33:11;25.60;99.90
17986;DHT22;9118;48.122;11.546;2023-05-07T13:35:38;25.60;99.90
17986;DHT22;9118;48.122;11.546;2023-05-07T13:38:05;25.60;99.90
17986;DHT22;9118;48.122;11.546;2023-05-07T13:40:32;25.60;99.90
17986;DHT22;9118;48.122;11.546;2023-05-07T13:43:00;25.60;99.90
17986;DHT22;9118;48.122;11.546;2023-05-07T13:45:27;25.60;99.90
17986;DHT22;9118;48.122;11.546;2023-05-07T13:47:57;25.70;99.90
17986;DHT22;9118;48.122;11.546;2023-05-07T13:50:24;25.80;99.90
17986;DHT22;9118;48.122;11.546;2023-05-07T13:52:54;26.00;99.90
17986;DHT22;9118;48.122;11.546;2023-05-07T13:55:25;26.50;99.90
17986;DHT22;9118;48.122;11.546;2023-05-07T13:57:56;26.40;99.90
17986;DHT22;9118;48.122;11.546;2023-05-07T14:00:24;26.70;99.90
17986;DHT22;9118;48.122;11.546;2023-05-07T14:02:51;27.10;99.90
17986;DHT22;9118;48.122;11.546;2023-05-07T14:05:20;27.50;99.90
17986;DHT22;9118;48.122;11.546;2023-05-07T14:07:55;28.10;99.90
17986;DHT22;9118;48.122;11.546;2023-05-07T14:10:24;28.70;99.90
17986;DHT22;9118;48.122;11.546;2023-05-07T14:12:51;29.00;99.90
17986;DHT22;9118;48.122;11.546;2023-05-07T14:15:19;29.20;99.90
17986;DHT22;9118;48.122;11.546;2023-05-07T14:17:47;29.20;99.90
17986;DHT22;9118;48.122;11.546;2023-05-07T14:20:16;29.00;99.90
17986;DHT22;9118;48.122;11.546;2023-05-07T14:22:44;28.50;99.90
17986;DHT22;9118;48.122;11.546;2023-05-07T14:25:12;27.90;99.90
17986;DHT22;9118;48.122;11.546;2023-05-07T14:27:39;27.60;99.90
17986;DHT22;9118;48.122;11.546;2023-05-07T14:30:23;27.40;99.90
17986;DHT22;9118;48.122;11.546;2023-05-07T14:33:05;27.70;99.90
17986;DHT22;9118;48.122;11.546;2023-05-07T14:35:46;28.10;99.90
17986;DHT22;9118;48.122;11.546;2023-05-07T14:41:50;27.70;99.90
17986;DHT22;9118;48.122;11.546;2023-05-07T14:44:17;27.20;99.90
17986;DHT22;9118;48.122;11.546;2023-05-07T14:46:45;27.60;99.90
17986;DHT22;9118;48.122;11.546;2023-05-07T14:49:23;28.80;99.90
17986;DHT22;9118;48.122;11.546;2023-05-07T14:52:01;31.40;99.90
17986;DHT22;9118;48.122;11.546;2023-05-07T14:54:47;29.20;99.90
17986;DHT22;9118;48.122;11.546;2023-05-07T14:57:42;28.60;99.90
17986;DHT22;9118;48.122;11.546;2023-05-07T15:00:25;28.00;99.90
17986;DHT22;9118;48.122;11.546;2023-05-07T15:03:24;27.30;99.90
17986;DHT22;9118;48.122;11.546;2023-05-07T15:06:11;26.10;99.90
17986;DHT22;9118;48.122;11.546;2023-05-07T15:08:43;26.10;99.90
17986;DHT22;9118;48.122;11.546;2023-05-07T15:11:27;25.70;99.90
17986;DHT22;9118;48.122;11.546;2023-05-07T15:14:09;26.30;99.90
17986;DHT22;9118;48.122;11.546;2023-05-07T15:16:50;25.20;99.90
17986;DHT22;9118;48.122;11.546;2023-05-07T15:19:22;24.90;99.90
17986;DHT22;9118;48.122;11.546;2023-05-07T15:21:55;26.60;99.90
17986;DHT22;9118;48.122;11.546;2023-05-07T15:24:39;24.70;99.90
17986;DHT22;9118;48.122;11.546;2023-05-07T15:27:12;24.60;99.90
17986;DHT22;9118;48.122;11.546;2023-05-07T15:30:00;24.30;99.90
17986;DHT22;9118;48.122;11.546;2023-05-07T15:32:41;24.20;99.90
17986;DHT22;9118;48.122;11.546;2023-05-07T15:35:55;22.90;99.90
17986;DHT22;9118;48.122;11.546;2023-05-07T15:38:25;23.90;99.90
17986;DHT22;9118;48.122;11.546;2023-05-07T15:40:57;24.10;99.90
17986;DHT22;9118;48.122;11.546;2023-05-07T15:43:30;23.90;99.90
17986;DHT22;9118;48.122;11.546;2023-05-07T15:46:06;23.60;99.90
17986;DHT22;9118;48.122;11.546;2023-05-07T15:48:53;23.60;99.90